sensor_id;sensor_type;location;lat;lon;timestamp;pressure;altitude;pressure_sealevel;temperature;humidity
80242;BME280;69556;45.004;7.532;2024-03-06T00:01:31;98137.66;;;8.35;76.07
80242;BME280;69556;45.004;7.532;2024-03-06T00:03:57;98137.72;;;8.34;76.14
80242;BME280;69556;45.004;7.532;2024-03-06T00:06:22;98141.28;;;8.31;77.77
80242;BME280;69556;45.004;7.532;2024-03-06T00:08:48;98136.97;;;8.30;78.46
80242;BME280;69556;45.004;7.532;2024-03-06T00:11:13;98134.34;;;8.30;78.73
80242;BME280;69556;45.004;7.532;2024-03-06T00:13:38;98135.34;;;8.25;78.63
80242;BME280;69556;45.004;7.532;2024-03-06T00:16:04;98136.25;;;8.24;77.64
80242;BME280;69556;45.004;7.532;2024-03-06T00:18:29;98135.44;;;8.22;78.89
80242;BME280;69556;45.004;7.532;2024-03-06T00:20:55;98139.13;;;8.16;80.12
80242;BME280;69556;45.004;7.532;2024-03-06T00:23:20;98140.22;;;8.09;79.51
80242;BME280;69556;45.004;7.532;2024-03-06T00:25:45;98138.56;;;8.07;80.31
80242;BME280;69556;45.004;7.532;2024-03-06T00:28:11;98139.53;;;8.03;80.80
80242;BME280;69556;45.004;7.532;2024-03-06T00:30:36;98131.56;;;8.06;80.72
80242;BME280;69556;45.004;7.532;2024-03-06T00:33:01;98127.25;;;8.03;79.79
80242;BME280;69556;45.004;7.532;2024-03-06T00:35:27;98128.13;;;8.04;80.79
80242;BME280;69556;45.004;7.532;2024-03-06T00:37:54;98138.59;;;8.05;80.55
80242;BME280;69556;45.004;7.532;2024-03-06T00:40:19;98141.22;;;8.05;81.33
80242;BME280;69556;45.004;7.532;2024-03-06T00:42:44;98138.44;;;8.10;83.57
80242;BME280;69556;45.004;7.532;2024-03-06T00:45:10;98137.75;;;8.03;82.85
80242;BME280;69556;45.004;7.532;2024-03-06T00:47:36;98143.00;;;8.05;81.77
80242;BME280;69556;45.004;7.532;2024-03-06T00:50:02;98136.97;;;8.01;82.31
80242;BME280;69556;45.004;7.532;2024-03-06T00:52:27;98132.66;;;7.98;81.87
80242;BME280;69556;45.004;7.532;2024-03-06T00:54:52;98135.50;;;7.92;81.78
80242;BME280;69556;45.004;7.532;2024-03-06T00:57:18;98134.38;;;8.00;82.30
80242;BME280;69556;45.004;7.532;2024-03-06T00:59:43;98137.03;;;7.98;83.19
80242;BME280;69556;45.004;7.532;2024-03-06T01:02:08;98135.38;;;7.95;82.40
80242;BME280;69556;45.004;7.532;2024-03-06T01:04:34;98141.66;;;7.91;82.67
80242;BME280;69556;45.004;7.532;2024-03-06T01:06:59;98122.72;;;7.80;81.70
80242;BME280;69556;45.004;7.532;2024-03-06T01:09:24;98133.31;;;7.77;81.96
80242;BME280;69556;45.004;7.532;2024-03-06T01:11:50;98129.78;;;7.78;81.91
80242;BME280;69556;45.004;7.532;2024-03-06T01:14:16;98119.50;;;7.71;82.64
80242;BME280;69556;45.004;7.532;2024-03-06T01:16:42;98125.69;;;7.70;82.57
80242;BME280;69556;45.004;7.532;2024-03-06T01:19:07;98115.97;;;7.72;84.67
80242;BME280;69556;45.004;7.532;2024-03-06T01:21:32;98113.31;;;7.73;84.96
80242;BME280;69556;45.004;7.532;2024-03-06T01:24:02;98117.81;;;7.70;84.33
80242;BME280;69556;45.004;7.532;2024-03-06T01:26:28;98107.31;;;7.68;83.88
80242;BME280;69556;45.004;7.532;2024-03-06T01:28:53;98112.66;;;7.65;86.26
80242;BME280;69556;45.004;7.532;2024-03-06T01:31:19;98117.16;;;7.62;84.68
80242;BME280;69556;45.004;7.532;2024-03-06T01:33:44;98127.72;;;7.60;83.37
80242;BME280;69556;45.004;7.532;2024-03-06T01:36:09;98121.59;;;7.60;83.19
80242;BME280;69556;45.004;7.532;2024-03-06T01:38:35;98126.75;;;7.63;82.40
80242;BME280;69556;45.004;7.532;2024-03-06T01:41:00;98120.72;;;7.59;82.14
80242;BME280;69556;45.004;7.532;2024-03-06T01:43:27;98122.50;;;7.59;82.08
80242;BME280;69556;45.004;7.532;2024-03-06T01:45:53;98119.63;;;7.66;82.78
80242;BME280;69556;45.004;7.532;2024-03-06T01:48:23;98118.16;;;7.58;81.85
80242;BME280;69556;45.004;7.532;2024-03-06T01:50:51;98125.09;;;7.60;82.10
80242;BME280;69556;45.004;7.532;2024-03-06T01:53:18;98119.00;;;7.58;82.57
80242;BME280;69556;45.004;7.532;2024-03-06T01:55:44;98117.34;;;7.56;82.00
80242;BME280;69556;45.004;7.532;2024-03-06T01:58:09;98110.41;;;7.53;82.47
80242;BME280;69556;45.004;7.532;2024-03-06T02:00:35;98109.75;;;7.46;82.93
80242;BME280;69556;45.004;7.532;2024-03-06T02:03:01;98115.69;;;7.51;83.08
80242;BME280;69556;45.004;7.532;2024-03-06T02:05:28;98118.44;;;7.47;83.45
80242;BME280;69556;45.004;7.532;2024-03-06T02:07:57;98124.63;;;7.46;83.55
80242;BME280;69556;45.004;7.532;2024-03-06T02:10:22;98116.78;;;7.44;83.39
80242;BME280;69556;45.004;7.532;2024-03-06T02:12:48;98118.41;;;7.48;82.85
80242;BME280;69556;45.004;7.532;2024-03-06T02:15:14;98119.28;;;7.49;84.12
80242;BME280;69556;45.004;7.532;2024-03-06T02:17:40;98142.78;;;7.53;83.83
80242;BME280;69556;45.004;7.532;2024-03-06T02:20:06;98138.56;;;7.48;83.16
80242;BME280;69556;45.004;7.532;2024-03-06T02:22:37;98135.03;;;7.49;83.32
80242;BME280;69556;45.004;7.532;2024-03-06T02:25:02;98115.06;;;7.43;83.86
80242;BME280;69556;45.004;7.532;2024-03-06T02:27:28;98122.81;;;7.48;83.64
80242;BME280;69556;45.004;7.532;2024-03-06T02:29:53;98132.28;;;7.53;83.77
80242;BME280;69556;45.004;7.532;2024-03-06T02:32:18;98131.50;;;7.50;83.64
80242;BME280;69556;45.004;7.532;2024-03-06T02:34:44;98149.16;;;7.45;83.45
80242;BME280;69556;45.004;7.532;2024-03-06T02:37:09;98143.22;;;7.38;83.35
80242;BME280;69556;45.004;7.532;2024-03-06T02:39:35;98135.16;;;7.44;83.55
80242;BME280;69556;45.004;7.532;2024-03-06T02:42:00;98137.03;;;7.41;83.78
80242;BME280;69556;45.004;7.532;2024-03-06T02:44:26;98135.19;;;7.43;83.97
80242;BME280;69556;45.004;7.532;2024-03-06T02:46:51;98126.44;;;7.44;83.90
80242;BME280;69556;45.004;7.532;2024-03-06T02:49:17;98131.53;;;7.48;84.36
80242;BME280;69556;45.004;7.532;2024-03-06T02:51:43;98136.81;;;7.47;84.35
80242;BME280;69556;45.004;7.532;2024-03-06T02:54:08;98138.53;;;7.49;83.90
80242;BME280;69556;45.004;7.532;2024-03-06T02:56:34;98157.84;;;7.47;83.12
80242;BME280;69556;45.004;7.532;2024-03-06T02:58:59;98171.97;;;7.43;83.07
80242;BME280;69556;45.004;7.532;2024-03-06T03:01:28;98162.31;;;7.43;82.62
80242;BME280;69556;45.004;7.532;2024-03-06T03:03:53;98145.69;;;7.43;82.49
80242;BME280;69556;45.004;7.532;2024-03-06T03:06:19;98157.00;;;7.46;82.88
80242;BME280;69556;45.004;7.532;2024-03-06T03:08:44;98166.63;;;7.46;82.09
80242;BME280;69556;45.004;7.532;2024-03-06T03:11:09;98175.38;;;7.46;82.46
80242;BME280;69556;45.004;7.532;2024-03-06T03:13:35;98181.31;;;7.53;80.89
80242;BME280;69556;45.004;7.532;2024-03-06T03:16:00;98161.06;;;7.57;80.70
80242;BME280;69556;45.004;7.532;2024-03-06T03:18:29;98170.63;;;7.59;81.57
80242;BME280;69556;45.004;7.532;2024-03-06T03:20:54;98171.41;;;7.63;81.54
80242;BME280;69556;45.004;7.532;2024-03-06T03:23:20;98178.53;;;7.58;80.78
80242;BME280;69556;45.004;7.532;2024-03-06T03:25:48;98175.00;;;7.60;80.64
80242;BME280;69556;45.004;7.532;2024-03-06T03:28:14;98179.25;;;7.64;81.05
80242;BME280;69556;45.004;7.532;2024-03-06T03:30:39;98190.53;;;7.68;81.55
80242;BME280;69556;45.004;7.532;2024-03-06T03:33:05;98205.53;;;7.63;80.66
80242;BME280;69556;45.004;7.532;2024-03-06T03:35:30;98191.44;;;7.65;81.11
80242;BME280;69556;45.004;7.532;2024-03-06T03:37:56;98197.63;;;7.64;80.79
80242;BME280;69556;45.004;7.532;2024-03-06T03:40:22;98198.53;;;7.63;80.69
80242;BME280;69556;45.004;7.532;2024-03-06T03:42:48;98214.16;;;7.68;80.61
80242;BME280;69556;45.004;7.532;2024-03-06T03:45:14;98207.16;;;7.68;80.73
80242;BME280;69556;45.004;7.532;2024-03-06T03:47:40;98217.63;;;7.70;80.75
80242;BME280;69556;45.004;7.532;2024-03-06T03:50:06;98208.88;;;7.69;81.08
80242;BME280;69556;45.004;7.532;2024-03-06T03:52:33;98206.25;;;7.69;81.07
80242;BME280;69556;45.004;7.532;2024-03-06T03:54:59;98209.81;;;7.67;81.98
80242;BME280;69556;45.004;7.532;2024-03-06T03:57:24;98204.59;;;7.65;82.53
80242;BME280;69556;45.004;7.532;2024-03-06T03:59:49;98216.81;;;7.66;83.16
80242;BME280;69556;45.004;7.532;2024-03-06T04:02:16;98216.88;;;7.65;83.29
80242;BME280;69556;45.004;7.532;2024-03-06T04:04:41;98212.78;;;7.55;83.76
80242;BME280;69556;45.004;7.532;2024-03-06T04:07:07;98213.47;;;7.61;83.42
80242;BME280;69556;45.004;7.532;2024-03-06T04:09:32;98204.94;;;7.53;83.30
80242;BME280;69556;45.004;7.532;2024-03-06T04:12:01;98197.69;;;7.61;83.17
80242;BME280;69556;45.004;7.532;2024-03-06T04:14:27;98175.13;;;7.56;83.54
80242;BME280;69556;45.004;7.532;2024-03-06T04:16:52;98154.41;;;7.45;83.91
80242;BME280;69556;45.004;7.532;2024-03-06T04:19:17;98168.44;;;7.44;84.75
80242;BME280;69556;45.004;7.532;2024-03-06T04:21:43;98175.16;;;7.54;84.76
80242;BME280;69556;45.004;7.532;2024-03-06T04:24:09;98192.03;;;7.45;85.04
80242;BME280;69556;45.004;7.532;2024-03-06T04:26:35;98165.06;;;7.39;83.26
80242;BME280;69556;45.004;7.532;2024-03-06T04:29:00;98182.47;;;7.43;82.44
80242;BME280;69556;45.004;7.532;2024-03-06T04:31:26;98180.50;;;7.51;82.28
80242;BME280;69556;45.004;7.532;2024-03-06T04:33:51;98176.06;;;7.53;80.83
80242;BME280;69556;45.004;7.532;2024-03-06T04:36:17;98155.03;;;7.53;80.49
80242;BME280;69556;45.004;7.532;2024-03-06T04:38:42;98153.25;;;7.55;79.52
80242;BME280;69556;45.004;7.532;2024-03-06T04:41:08;98168.16;;;7.53;81.41
80242;BME280;69556;45.004;7.532;2024-03-06T04:43:33;98199.56;;;7.58;79.93
80242;BME280;69556;45.004;7.532;2024-03-06T04:45:59;98205.78;;;7.55;80.67
80242;BME280;69556;45.004;7.532;2024-03-06T04:48:24;98202.94;;;7.61;81.09
80242;BME280;69556;45.004;7.532;2024-03-06T04:50:49;98194.19;;;7.62;81.75
80242;BME280;69556;45.004;7.532;2024-03-06T04:53:15;98186.31;;;7.61;81.12
80242;BME280;69556;45.004;7.532;2024-03-06T04:55:40;98190.09;;;7.52;81.19
80242;BME280;69556;45.004;7.532;2024-03-06T04:58:06;98206.66;;;7.54;81.40
80242;BME280;69556;45.004;7.532;2024-03-06T05:00:32;98204.28;;;7.46;81.16
80242;BME280;69556;45.004;7.532;2024-03-06T05:02:57;98208.69;;;7.44;81.04
80242;BME280;69556;45.004;7.532;2024-03-06T05:05:23;98199.97;;;7.42;81.87
80242;BME280;69556;45.004;7.532;2024-03-06T05:07:50;98206.19;;;7.40;81.67
80242;BME280;69556;45.004;7.532;2024-03-06T05:10:15;98208.81;;;7.40;82.31
80242;BME280;69556;45.004;7.532;2024-03-06T05:12:43;98212.34;;;7.39;82.46
80242;BME280;69556;45.004;7.532;2024-03-06T05:15:10;98222.81;;;7.40;83.56
80242;BME280;69556;45.004;7.532;2024-03-06T05:17:35;98220.34;;;7.34;83.34
80242;BME280;69556;45.004;7.532;2024-03-06T05:20:01;98219.72;;;7.25;83.95
80242;BME280;69556;45.004;7.532;2024-03-06T05:22:28;98214.34;;;7.29;83.80
80242;BME280;69556;45.004;7.532;2024-03-06T05:24:54;98217.09;;;7.25;84.21
80242;BME280;69556;45.004;7.532;2024-03-06T05:27:20;98210.22;;;7.19;84.29
80242;BME280;69556;45.004;7.532;2024-03-06T05:29:45;98218.97;;;7.20;84.22
80242;BME280;69556;45.004;7.532;2024-03-06T05:32:11;98211.06;;;7.21;83.97
80242;BME280;69556;45.004;7.532;2024-03-06T05:34:36;98214.69;;;7.17;84.36
80242;BME280;69556;45.004;7.532;2024-03-06T05:37:02;98215.44;;;7.22;84.61
80242;BME280;69556;45.004;7.532;2024-03-06T05:39:30;98218.31;;;7.12;85.42
80242;BME280;69556;45.004;7.532;2024-03-06T05:41:55;98204.38;;;7.09;86.55
80242;BME280;69556;45.004;7.532;2024-03-06T05:44:24;98203.03;;;6.95;87.04
80242;BME280;69556;45.004;7.532;2024-03-06T05:46:49;98216.13;;;6.95;88.24
80242;BME280;69556;45.004;7.532;2024-03-06T05:49:15;98220.53;;;6.94;88.45
80242;BME280;69556;45.004;7.532;2024-03-06T05:51:40;98210.25;;;6.85;88.51
80242;BME280;69556;45.004;7.532;2024-03-06T05:54:06;98217.31;;;6.82;88.31
80242;BME280;69556;45.004;7.532;2024-03-06T05:56:34;98224.41;;;6.78;88.43
80242;BME280;69556;45.004;7.532;2024-03-06T05:58:59;98227.91;;;6.79;89.11
80242;BME280;69556;45.004;7.532;2024-03-06T06:01:30;98229.78;;;6.74;88.38
80242;BME280;69556;45.004;7.532;2024-03-06T06:03:55;98242.91;;;6.72;87.64
80242;BME280;69556;45.004;7.532;2024-03-06T06:06:21;98253.41;;;6.72;88.97
80242;BME280;69556;45.004;7.532;2024-03-06T06:08:46;98261.38;;;6.68;88.97
80242;BME280;69556;45.004;7.532;2024-03-06T06:11:11;98269.25;;;6.68;89.81
80242;BME280;69556;45.004;7.532;2024-03-06T06:13:38;98270.19;;;6.65;90.83
80242;BME280;69556;45.004;7.532;2024-03-06T06:16:05;98285.94;;;6.65;89.70
80242;BME280;69556;45.004;7.532;2024-03-06T06:18:30;98295.59;;;6.63;89.70
80242;BME280;69556;45.004;7.532;2024-03-06T06:20:57;98293.81;;;6.65;89.52
80242;BME280;69556;45.004;7.532;2024-03-06T06:23:22;98288.63;;;6.62;90.53
80242;BME280;69556;45.004;7.532;2024-03-06T06:25:48;98299.94;;;6.64;90.62
80242;BME280;69556;45.004;7.532;2024-03-06T06:28:13;98305.91;;;6.71;91.02
80242;BME280;69556;45.004;7.532;2024-03-06T06:30:38;98328.56;;;6.75;90.89
80242;BME280;69556;45.004;7.532;2024-03-06T06:33:04;98329.34;;;6.78;90.63
80242;BME280;69556;45.004;7.532;2024-03-06T06:35:30;98322.34;;;6.77;90.78
80242;BME280;69556;45.004;7.532;2024-03-06T06:37:55;98328.47;;;6.78;90.88
80242;BME280;69556;45.004;7.532;2024-03-06T06:40:21;98324.94;;;6.79;90.72
80242;BME280;69556;45.004;7.532;2024-03-06T06:42:48;98337.97;;;6.83;90.82
80242;BME280;69556;45.004;7.532;2024-03-06T06:45:18;98332.72;;;6.83;91.02
80242;BME280;69556;45.004;7.532;2024-03-06T06:47:44;98329.25;;;6.81;91.25
80242;BME280;69556;45.004;7.532;2024-03-06T06:50:10;98345.81;;;6.85;91.63
80242;BME280;69556;45.004;7.532;2024-03-06T06:52:39;98348.56;;;6.79;92.51
80242;BME280;69556;45.004;7.532;2024-03-06T06:55:06;98358.28;;;6.74;92.70
80242;BME280;69556;45.004;7.532;2024-03-06T06:57:32;98354.81;;;6.73;92.90
80242;BME280;69556;45.004;7.532;2024-03-06T07:00:01;98373.91;;;6.80;92.69
80242;BME280;69556;45.004;7.532;2024-03-06T07:02:38;98360.72;;;6.81;92.43
80242;BME280;69556;45.004;7.532;2024-03-06T07:05:05;98375.53;;;6.85;92.27
80242;BME280;69556;45.004;7.532;2024-03-06T07:07:30;98376.41;;;6.86;92.56
80242;BME280;69556;45.004;7.532;2024-03-06T07:09:55;98379.06;;;6.83;92.08
80242;BME280;69556;45.004;7.532;2024-03-06T07:12:21;98379.84;;;6.86;92.00
80242;BME280;69556;45.004;7.532;2024-03-06T07:14:47;98389.34;;;6.93;91.88
80242;BME280;69556;45.004;7.532;2024-03-06T07:17:12;98395.38;;;6.97;90.73
80242;BME280;69556;45.004;7.532;2024-03-06T07:19:37;98404.03;;;7.00;90.23
80242;BME280;69556;45.004;7.532;2024-03-06T07:22:04;98398.75;;;7.02;89.98
80242;BME280;69556;45.004;7.532;2024-03-06T07:24:29;98402.16;;;7.05;89.05
80242;BME280;69556;45.004;7.532;2024-03-06T07:26:55;98409.00;;;7.13;87.50
80242;BME280;69556;45.004;7.532;2024-03-06T07:29:20;98405.34;;;7.20;87.41
80242;BME280;69556;45.004;7.532;2024-03-06T07:31:46;98416.78;;;7.17;87.42
80242;BME280;69556;45.004;7.532;2024-03-06T07:34:12;98417.47;;;7.24;87.38
80242;BME280;69556;45.004;7.532;2024-03-06T07:36:38;98416.56;;;7.26;87.57
80242;BME280;69556;45.004;7.532;2024-03-06T07:39:03;98420.94;;;7.27;88.27
80242;BME280;69556;45.004;7.532;2024-03-06T07:41:30;98428.63;;;7.33;87.54
80242;BME280;69556;45.004;7.532;2024-03-06T07:43:56;98432.81;;;7.42;86.15
80242;BME280;69556;45.004;7.532;2024-03-06T07:46:21;98429.94;;;7.52;86.18
80242;BME280;69556;45.004;7.532;2024-03-06T07:48:47;98435.94;;;7.58;84.59
80242;BME280;69556;45.004;7.532;2024-03-06T07:51:12;98437.63;;;7.60;83.82
80242;BME280;69556;45.004;7.532;2024-03-06T07:53:38;98444.38;;;7.70;84.06
80242;BME280;69556;45.004;7.532;2024-03-06T07:56:04;98434.66;;;7.74;81.31
80242;BME280;69556;45.004;7.532;2024-03-06T07:58:29;98442.34;;;7.81;80.94
80242;BME280;69556;45.004;7.532;2024-03-06T08:00:55;98451.34;;;7.71;81.12
80242;BME280;69556;45.004;7.532;2024-03-06T08:03:24;98447.69;;;7.78;82.10
80242;BME280;69556;45.004;7.532;2024-03-06T08:05:53;98441.22;;;7.91;81.53
80242;BME280;69556;45.004;7.532;2024-03-06T08:08:18;98445.59;;;7.91;81.33
80242;BME280;69556;45.004;7.532;2024-03-06T08:10:44;98449.19;;;7.88;81.48
80242;BME280;69556;45.004;7.532;2024-03-06T08:13:10;98444.00;;;7.85;80.80
80242;BME280;69556;45.004;7.532;2024-03-06T08:15:36;98441.56;;;7.78;80.80
80242;BME280;69556;45.004;7.532;2024-03-06T08:18:01;98448.38;;;7.85;79.85
80242;BME280;69556;45.004;7.532;2024-03-06T08:20:28;98455.28;;;7.89;80.47
80242;BME280;69556;45.004;7.532;2024-03-06T08:22:55;98448.09;;;7.97;78.68
80242;BME280;69556;45.004;7.532;2024-03-06T08:25:22;98446.44;;;7.93;79.69
80242;BME280;69556;45.004;7.532;2024-03-06T08:27:48;98452.94;;;8.12;79.78
80242;BME280;69556;45.004;7.532;2024-03-06T08:30:13;98465.13;;;8.16;78.58
80242;BME280;69556;45.004;7.532;2024-03-06T08:32:39;98462.38;;;8.21;76.55
80242;BME280;69556;45.004;7.532;2024-03-06T08:35:05;98470.03;;;8.28;77.05
80242;BME280;69556;45.004;7.532;2024-03-06T08:37:32;98468.16;;;8.35;75.84
80242;BME280;69556;45.004;7.532;2024-03-06T08:39:59;98487.50;;;8.32;74.71
80242;BME280;69556;45.004;7.532;2024-03-06T08:42:25;98478.66;;;8.35;74.82
80242;BME280;69556;45.004;7.532;2024-03-06T08:44:50;98479.19;;;8.48;74.03
80242;BME280;69556;45.004;7.532;2024-03-06T08:47:15;98486.06;;;8.53;72.48
80242;BME280;69556;45.004;7.532;2024-03-06T08:49:41;98478.19;;;8.52;71.70
80242;BME280;69556;45.004;7.532;2024-03-06T08:52:06;98488.56;;;8.58;72.17
80242;BME280;69556;45.004;7.532;2024-03-06T08:54:32;98477.13;;;8.59;71.77
80242;BME280;69556;45.004;7.532;2024-03-06T08:56:57;98484.88;;;8.63;71.95
80242;BME280;69556;45.004;7.532;2024-03-06T08:59:24;98496.75;;;8.78;72.38
80242;BME280;69556;45.004;7.532;2024-03-06T09:01:53;98498.25;;;8.87;72.32
80242;BME280;69556;45.004;7.532;2024-03-06T09:04:19;98493.97;;;8.84;69.63
80242;BME280;69556;45.004;7.532;2024-03-06T09:06:45;98492.88;;;8.91;70.29
80242;BME280;69556;45.004;7.532;2024-03-06T09:09:10;98482.72;;;9.08;70.74
80242;BME280;69556;45.004;7.532;2024-03-06T09:11:35;98481.13;;;9.03;70.16
80242;BME280;69556;45.004;7.532;2024-03-06T09:14:04;98473.69;;;9.17;70.20
80242;BME280;69556;45.004;7.532;2024-03-06T09:16:29;98480.22;;;9.33;69.65
80242;BME280;69556;45.004;7.532;2024-03-06T09:18:55;98473.41;;;9.26;68.86
80242;BME280;69556;45.004;7.532;2024-03-06T09:21:20;98469.69;;;9.33;69.70
80242;BME280;69556;45.004;7.532;2024-03-06T09:23:47;98470.78;;;9.54;70.58
80242;BME280;69556;45.004;7.532;2024-03-06T09:26:19;98467.38;;;9.50;69.27
80242;BME280;69556;45.004;7.532;2024-03-06T09:28:45;98453.31;;;9.51;68.56
80242;BME280;69556;45.004;7.532;2024-03-06T09:31:11;98462.97;;;9.51;68.69
80242;BME280;69556;45.004;7.532;2024-03-06T09:33:39;98478.81;;;9.49;69.66
80242;BME280;69556;45.004;7.532;2024-03-06T09:36:05;98473.97;;;9.63;69.32
80242;BME280;69556;45.004;7.532;2024-03-06T09:38:30;98473.16;;;9.61;67.97
80242;BME280;69556;45.004;7.532;2024-03-06T09:40:56;98491.13;;;9.77;68.07
80242;BME280;69556;45.004;7.532;2024-03-06T09:43:22;98497.41;;;9.99;67.38
80242;BME280;69556;45.004;7.532;2024-03-06T09:45:48;98509.84;;;9.95;68.91
80242;BME280;69556;45.004;7.532;2024-03-06T09:48:17;98512.41;;;9.98;67.40
80242;BME280;69556;45.004;7.532;2024-03-06T09:50:46;98520.38;;;9.95;69.06
80242;BME280;69556;45.004;7.532;2024-03-06T09:53:15;98520.69;;;10.12;69.37
80242;BME280;69556;45.004;7.532;2024-03-06T09:55:42;98513.53;;;10.18;67.81
80242;BME280;69556;45.004;7.532;2024-03-06T09:58:07;98514.38;;;10.18;67.95
80242;BME280;69556;45.004;7.532;2024-03-06T10:00:34;98516.94;;;10.21;67.20
80242;BME280;69556;45.004;7.532;2024-03-06T10:03:01;98509.66;;;10.28;67.04
80242;BME280;69556;45.004;7.532;2024-03-06T10:05:28;98514.06;;;10.27;68.35
80242;BME280;69556;45.004;7.532;2024-03-06T10:07:55;98518.41;;;10.30;68.30
80242;BME280;69556;45.004;7.532;2024-03-06T10:10:21;98513.31;;;10.24;67.52
80242;BME280;69556;45.004;7.532;2024-03-06T10:12:48;98522.78;;;10.31;68.70
80242;BME280;69556;45.004;7.532;2024-03-06T10:15:15;98527.59;;;10.44;67.60
80242;BME280;69556;45.004;7.532;2024-03-06T10:17:40;98530.16;;;10.46;66.93
80242;BME280;69556;45.004;7.532;2024-03-06T10:20:22;98527.06;;;10.33;66.50
80242;BME280;69556;45.004;7.532;2024-03-06T10:22:49;98527.75;;;10.40;67.81
80242;BME280;69556;45.004;7.532;2024-03-06T10:25:18;98526.94;;;10.63;67.08
80242;BME280;69556;45.004;7.532;2024-03-06T10:27:44;98525.72;;;10.73;67.21
80242;BME280;69556;45.004;7.532;2024-03-06T10:30:10;98535.13;;;10.80;67.06
80242;BME280;69556;45.004;7.532;2024-03-06T10:32:38;98539.91;;;10.93;67.94
80242;BME280;69556;45.004;7.532;2024-03-06T10:35:04;98541.25;;;11.05;66.82
80242;BME280;69556;45.004;7.532;2024-03-06T10:37:32;98537.06;;;10.99;65.90
80242;BME280;69556;45.004;7.532;2024-03-06T10:39:59;98538.63;;;11.05;65.70
80242;BME280;69556;45.004;7.532;2024-03-06T10:42:27;98535.38;;;11.20;63.28
80242;BME280;69556;45.004;7.532;2024-03-06T10:44:55;98528.84;;;11.30;65.79
80242;BME280;69556;45.004;7.532;2024-03-06T10:47:24;98534.94;;;11.32;63.38
80242;BME280;69556;45.004;7.532;2024-03-06T10:49:52;98532.53;;;11.26;61.99
80242;BME280;69556;45.004;7.532;2024-03-06T10:52:19;98530.88;;;11.24;63.51
80242;BME280;69556;45.004;7.532;2024-03-06T10:54:46;98530.22;;;11.17;64.63
80242;BME280;69556;45.004;7.532;2024-03-06T10:57:14;98523.91;;;11.21;63.30
80242;BME280;69556;45.004;7.532;2024-03-06T10:59:40;98523.50;;;11.32;65.24
80242;BME280;69556;45.004;7.532;2024-03-06T11:02:08;98523.03;;;11.44;64.06
80242;BME280;69556;45.004;7.532;2024-03-06T11:04:35;98527.56;;;11.64;64.45
80242;BME280;69556;45.004;7.532;2024-03-06T11:07:04;98526.91;;;11.80;62.35
80242;BME280;69556;45.004;7.532;2024-03-06T11:09:36;98520.28;;;11.92;60.72
80242;BME280;69556;45.004;7.532;2024-03-06T11:12:06;98510.16;;;12.03;59.19
80242;BME280;69556;45.004;7.532;2024-03-06T11:14:33;98512.91;;;12.00;60.82
80242;BME280;69556;45.004;7.532;2024-03-06T11:19:30;98508.91;;;11.90;58.97
80242;BME280;69556;45.004;7.532;2024-03-06T11:21:56;98494.25;;;11.81;60.61
80242;BME280;69556;45.004;7.532;2024-03-06T11:24:23;98500.78;;;11.73;60.38
80242;BME280;69556;45.004;7.532;2024-03-06T11:26:50;98508.59;;;11.76;59.50
80242;BME280;69556;45.004;7.532;2024-03-06T11:29:18;98519.38;;;11.93;59.02
80242;BME280;69556;45.004;7.532;2024-03-06T11:32:16;98536.41;;;12.08;58.55
80242;BME280;69556;45.004;7.532;2024-03-06T11:34:42;98544.47;;;12.26;60.03
80242;BME280;69556;45.004;7.532;2024-03-06T11:37:08;98554.66;;;12.56;57.16
80242;BME280;69556;45.004;7.532;2024-03-06T11:39:36;98554.75;;;12.54;56.54
80242;BME280;69556;45.004;7.532;2024-03-06T11:42:02;98542.84;;;12.64;56.42
80242;BME280;69556;45.004;7.532;2024-03-06T11:44:28;98543.44;;;12.71;58.79
80242;BME280;69556;45.004;7.532;2024-03-06T11:49:24;98546.09;;;12.91;56.19
80242;BME280;69556;45.004;7.532;2024-03-06T11:51:57;98543.22;;;12.75;57.81
80242;BME280;69556;45.004;7.532;2024-03-06T11:54:23;98548.31;;;12.60;58.48
80242;BME280;69556;45.004;7.532;2024-03-06T11:56:52;98545.13;;;12.31;59.57
80242;BME280;69556;45.004;7.532;2024-03-06T11:59:25;98542.91;;;12.21;58.53
80242;BME280;69556;45.004;7.532;2024-03-06T12:01:52;98532.81;;;12.30;59.04
80242;BME280;69556;45.004;7.532;2024-03-06T12:04:19;98531.78;;;12.55;60.75
80242;BME280;69556;45.004;7.532;2024-03-06T12:06:45;98530.19;;;12.71;60.59
80242;BME280;69556;45.004;7.532;2024-03-06T12:09:10;98522.25;;;12.71;59.88
80242;BME280;69556;45.004;7.532;2024-03-06T12:11:37;98533.09;;;12.85;58.19
80242;BME280;69556;45.004;7.532;2024-03-06T12:14:02;98522.91;;;12.96;57.63
80242;BME280;69556;45.004;7.532;2024-03-06T12:16:28;98520.00;;;12.82;56.63
80242;BME280;69556;45.004;7.532;2024-03-06T12:18:57;98510.69;;;12.73;57.08
80242;BME280;69556;45.004;7.532;2024-03-06T12:21:32;98503.59;;;12.54;56.40
80242;BME280;69556;45.004;7.532;2024-03-06T12:26:29;98497.38;;;12.55;56.23
80242;BME280;69556;45.004;7.532;2024-03-06T12:29:07;98486.44;;;12.62;56.57
80242;BME280;69556;45.004;7.532;2024-03-06T12:31:34;98477.63;;;12.62;55.57
80242;BME280;69556;45.004;7.532;2024-03-06T12:34:00;98471.00;;;12.52;55.12
80242;BME280;69556;45.004;7.532;2024-03-06T12:36:28;98468.09;;;12.78;55.12
80242;BME280;69556;45.004;7.532;2024-03-06T12:38:55;98475.47;;;12.90;53.42
80242;BME280;69556;45.004;7.532;2024-03-06T12:41:21;98477.19;;;13.11;53.51
80242;BME280;69556;45.004;7.532;2024-03-06T12:43:46;98487.56;;;13.53;52.25
80242;BME280;69556;45.004;7.532;2024-03-06T12:46:12;98491.66;;;13.60;48.37
80242;BME280;69556;45.004;7.532;2024-03-06T12:48:37;98480.84;;;13.65;49.32
80242;BME280;69556;45.004;7.532;2024-03-06T12:51:05;98481.75;;;13.83;47.72
80242;BME280;69556;45.004;7.532;2024-03-06T12:53:31;98475.19;;;14.08;49.07
80242;BME280;69556;45.004;7.532;2024-03-06T12:55:58;98454.00;;;14.07;47.47
80242;BME280;69556;45.004;7.532;2024-03-06T12:58:24;98459.72;;;13.99;47.58
80242;BME280;69556;45.004;7.532;2024-03-06T13:00:49;98455.81;;;14.06;49.12
80242;BME280;69556;45.004;7.532;2024-03-06T13:03:15;98446.34;;;14.01;47.07
80242;BME280;69556;45.004;7.532;2024-03-06T13:05:41;98442.81;;;14.00;48.28
80242;BME280;69556;45.004;7.532;2024-03-06T13:08:06;98457.81;;;14.01;47.71
80242;BME280;69556;45.004;7.532;2024-03-06T13:10:31;98450.19;;;14.13;44.69